sensor_id;sensor_type;location;lat;lon;timestamp;pressure;altitude;pressure_sealevel;temperature;humidity
50430;BME280;36359;41.556;-8.418;2023-08-08T00:00:06;99656.59;;;28.01;37.31
50430;BME280;36359;41.556;-8.418;2023-08-08T00:02:31;99655.75;;;27.95;37.46
50430;BME280;36359;41.556;-8.418;2023-08-08T00:04:57;99656.03;;;27.83;37.40
50430;BME280;36359;41.556;-8.418;2023-08-08T00:09:49;99658.28;;;27.81;37.35
50430;BME280;36359;41.556;-8.418;2023-08-08T00:12:14;99657.13;;;27.82;37.47
50430;BME280;36359;41.556;-8.418;2023-08-08T00:14:40;99646.56;;;27.79;37.44
50430;BME280;36359;41.556;-8.418;2023-08-08T00:17:06;99650.72;;;27.77;37.16
50430;BME280;36359;41.556;-8.418;2023-08-08T00:19:31;99652.44;;;27.83;36.93
50430;BME280;36359;41.556;-8.418;2023-08-08T00:21:57;99655.19;;;27.73;37.24
50430;BME280;36359;41.556;-8.418;2023-08-08T00:24:23;99654.34;;;27.67;37.61
50430;BME280;36359;41.556;-8.418;2023-08-08T00:26:49;99648.22;;;27.65;37.35
50430;BME280;36359;41.556;-8.418;2023-08-08T00:29:14;99656.59;;;27.65;37.74
50430;BME280;36359;41.556;-8.418;2023-08-08T00:31:40;99657.41;;;27.60;37.66
50430;BME280;36359;41.556;-8.418;2023-08-08T00:34:06;99653.78;;;27.75;37.71
50430;BME280;36359;41.556;-8.418;2023-08-08T00:36:31;99656.84;;;27.63;37.77
50430;BME280;36359;41.556;-8.418;2023-08-08T00:38:57;99646.28;;;27.66;37.80
50430;BME280;36359;41.556;-8.418;2023-08-08T00:41:23;99645.41;;;27.50;37.81
50430;BME280;36359;41.556;-8.418;2023-08-08T00:43:48;99638.44;;;27.47;37.72
50430;BME280;36359;41.556;-8.418;2023-08-08T00:46:18;99639.84;;;27.39;38.17
50430;BME280;36359;41.556;-8.418;2023-08-08T00:48:46;99636.50;;;27.32;38.28
50430;BME280;36359;41.556;-8.418;2023-08-08T00:51:12;99632.59;;;27.23;38.40
50430;BME280;36359;41.556;-8.418;2023-08-08T00:53:39;99633.44;;;27.18;38.07
50430;BME280;36359;41.556;-8.418;2023-08-08T00:56:05;99625.94;;;27.24;37.83
50430;BME280;36359;41.556;-8.418;2023-08-08T00:58:31;99625.94;;;27.24;38.04
50430;BME280;36359;41.556;-8.418;2023-08-08T01:00:56;99622.00;;;27.20;38.17
50430;BME280;36359;41.556;-8.418;2023-08-08T01:03:26;99623.91;;;27.14;38.30
50430;BME280;36359;41.556;-8.418;2023-08-08T01:06:02;99622.03;;;27.15;38.24
50430;BME280;36359;41.556;-8.418;2023-08-08T01:08:35;99608.06;;;27.10;38.07
50430;BME280;36359;41.556;-8.418;2023-08-08T01:11:05;99618.91;;;27.06;38.01
50430;BME280;36359;41.556;-8.418;2023-08-08T01:13:31;99609.16;;;27.04;38.02
50430;BME280;36359;41.556;-8.418;2023-08-08T01:15:58;99611.94;;;27.14;37.13
50430;BME280;36359;41.556;-8.418;2023-08-08T01:18:26;99608.88;;;27.10;37.70
50430;BME280;36359;41.556;-8.418;2023-08-08T01:20:54;99607.78;;;27.06;37.89
50430;BME280;36359;41.556;-8.418;2023-08-08T01:25:54;99599.41;;;26.96;38.02
50430;BME280;36359;41.556;-8.418;2023-08-08T01:28:22;99596.34;;;26.92;37.90
50430;BME280;36359;41.556;-8.418;2023-08-08T01:30:48;99587.97;;;26.92;37.75
50430;BME280;36359;41.556;-8.418;2023-08-08T01:33:14;99589.38;;;27.00;37.47
50430;BME280;36359;41.556;-8.418;2023-08-08T01:35:44;99588.28;;;27.06;37.02
50430;BME280;36359;41.556;-8.418;2023-08-08T01:40:43;99584.69;;;27.16;36.80
50430;BME280;36359;41.556;-8.418;2023-08-08T01:43:09;99583.28;;;27.13;36.79
50430;BME280;36359;41.556;-8.418;2023-08-08T01:45:37;99585.78;;;27.10;36.35
50430;BME280;36359;41.556;-8.418;2023-08-08T01:48:10;99594.66;;;27.12;36.21
50430;BME280;36359;41.556;-8.418;2023-08-08T01:50:37;99579.69;;;27.23;35.70
50430;BME280;36359;41.556;-8.418;2023-08-08T01:53:03;99574.69;;;27.25;37.45
50430;BME280;36359;41.556;-8.418;2023-08-08T01:55:30;99579.97;;;27.32;37.20
50430;BME280;36359;41.556;-8.418;2023-08-08T01:57:56;99582.47;;;27.44;37.05
50430;BME280;36359;41.556;-8.418;2023-08-08T02:00:22;99582.78;;;27.27;37.90
50430;BME280;36359;41.556;-8.418;2023-08-08T02:02:47;99592.50;;;27.19;36.89
50430;BME280;36359;41.556;-8.418;2023-08-08T02:05:14;99585.28;;;27.18;36.27
50430;BME280;36359;41.556;-8.418;2023-08-08T02:07:39;99578.25;;;27.10;36.36
50430;BME280;36359;41.556;-8.418;2023-08-08T02:10:05;99586.91;;;27.04;36.76
50430;BME280;36359;41.556;-8.418;2023-08-08T02:12:31;99587.50;;;27.16;39.32
50430;BME280;36359;41.556;-8.418;2023-08-08T02:14:58;99586.91;;;27.29;39.43
50430;BME280;36359;41.556;-8.418;2023-08-08T02:17:24;99589.41;;;27.10;37.63
50430;BME280;36359;41.556;-8.418;2023-08-08T02:19:51;99589.09;;;27.12;37.81
50430;BME280;36359;41.556;-8.418;2023-08-08T02:22:17;99583.31;;;27.18;39.79
50430;BME280;36359;41.556;-8.418;2023-08-08T02:24:43;99587.44;;;27.06;37.69
50430;BME280;36359;41.556;-8.418;2023-08-08T02:27:09;99573.91;;;26.46;38.92
50430;BME280;36359;41.556;-8.418;2023-08-08T02:29:35;99579.16;;;26.33;38.65
50430;BME280;36359;41.556;-8.418;2023-08-08T02:32:01;99580.53;;;26.30;37.98
50430;BME280;36359;41.556;-8.418;2023-08-08T02:34:27;99580.03;;;26.48;37.71
50430;BME280;36359;41.556;-8.418;2023-08-08T02:36:52;99582.88;;;26.54;37.12
50430;BME280;36359;41.556;-8.418;2023-08-08T02:39:19;99581.22;;;26.58;36.69
50430;BME280;36359;41.556;-8.418;2023-08-08T02:41:44;99576.78;;;26.57;36.86
50430;BME280;36359;41.556;-8.418;2023-08-08T02:44:11;99581.22;;;26.58;38.20
50430;BME280;36359;41.556;-8.418;2023-08-08T02:46:37;99579.00;;;26.65;36.63
50430;BME280;36359;41.556;-8.418;2023-08-08T02:49:06;99574.47;;;26.48;37.06
50430;BME280;36359;41.556;-8.418;2023-08-08T02:51:32;99565.03;;;26.44;37.00
50430;BME280;36359;41.556;-8.418;2023-08-08T02:53:58;99574.47;;;26.43;36.97
50430;BME280;36359;41.556;-8.418;2023-08-08T02:56:24;99568.97;;;26.54;36.42
50430;BME280;36359;41.556;-8.418;2023-08-08T02:58:51;99571.19;;;26.52;36.54
50430;BME280;36359;41.556;-8.418;2023-08-08T03:01:17;99571.25;;;26.72;38.30
50430;BME280;36359;41.556;-8.418;2023-08-08T03:03:45;99576.84;;;26.92;39.19
50430;BME280;36359;41.556;-8.418;2023-08-08T03:06:12;99576.31;;;27.01;37.85
50430;BME280;36359;41.556;-8.418;2023-08-08T03:08:39;99574.63;;;26.94;36.38
50430;BME280;36359;41.556;-8.418;2023-08-08T03:11:04;99573.78;;;26.94;36.63
50430;BME280;36359;41.556;-8.418;2023-08-08T03:13:31;99578.75;;;26.66;36.77
50430;BME280;36359;41.556;-8.418;2023-08-08T03:15:58;99571.41;;;26.45;36.77
50430;BME280;36359;41.556;-8.418;2023-08-08T03:18:24;99575.63;;;26.53;36.54
50430;BME280;36359;41.556;-8.418;2023-08-08T03:20:52;99573.44;;;26.60;35.92
50430;BME280;36359;41.556;-8.418;2023-08-08T03:23:18;99570.91;;;26.58;35.48
50430;BME280;36359;41.556;-8.418;2023-08-08T03:25:44;99569.81;;;26.64;35.89
50430;BME280;36359;41.556;-8.418;2023-08-08T03:28:12;99574.59;;;26.74;35.66
50430;BME280;36359;41.556;-8.418;2023-08-08T03:30:37;99581.00;;;26.85;38.65
50430;BME280;36359;41.556;-8.418;2023-08-08T03:33:05;99579.03;;;26.75;36.82
50430;BME280;36359;41.556;-8.418;2023-08-08T03:35:31;99578.47;;;26.68;36.34
50430;BME280;36359;41.556;-8.418;2023-08-08T03:37:56;99577.34;;;26.69;37.21
50430;BME280;36359;41.556;-8.418;2023-08-08T03:40:23;99578.50;;;26.93;39.55
50430;BME280;36359;41.556;-8.418;2023-08-08T03:42:48;99573.22;;;26.87;37.93
50430;BME280;36359;41.556;-8.418;2023-08-08T03:45:14;99581.28;;;26.88;37.77
50430;BME280;36359;41.556;-8.418;2023-08-08T03:47:40;99574.72;;;26.37;38.41
50430;BME280;36359;41.556;-8.418;2023-08-08T03:50:07;99573.88;;;26.36;37.38
50430;BME280;36359;41.556;-8.418;2023-08-08T03:52:34;99578.19;;;26.69;40.25
50430;BME280;36359;41.556;-8.418;2023-08-08T03:55:01;99578.50;;;26.88;39.09
50430;BME280;36359;41.556;-8.418;2023-08-08T03:57:27;99573.50;;;27.06;39.52
50430;BME280;36359;41.556;-8.418;2023-08-08T03:59:52;99576.53;;;26.79;37.69
50430;BME280;36359;41.556;-8.418;2023-08-08T04:02:18;99577.63;;;26.72;37.65
50430;BME280;36359;41.556;-8.418;2023-08-08T04:04:44;99572.50;;;26.44;37.03
50430;BME280;36359;41.556;-8.418;2023-08-08T04:07:10;99578.03;;;26.34;36.57
50430;BME280;36359;41.556;-8.418;2023-08-08T04:09:35;99568.31;;;26.41;36.45
50430;BME280;36359;41.556;-8.418;2023-08-08T04:12:01;99567.53;;;26.46;36.16
50430;BME280;36359;41.556;-8.418;2023-08-08T04:14:27;99569.53;;;26.50;35.79
50430;BME280;36359;41.556;-8.418;2023-08-08T04:16:53;99569.72;;;26.44;35.80
50430;BME280;36359;41.556;-8.418;2023-08-08T04:19:18;99573.69;;;26.53;35.74
50430;BME280;36359;41.556;-8.418;2023-08-08T04:21:44;99573.44;;;26.60;35.81
50430;BME280;36359;41.556;-8.418;2023-08-08T04:24:10;99563.97;;;26.61;35.51
50430;BME280;36359;41.556;-8.418;2023-08-08T04:26:37;99564.53;;;26.58;36.13
50430;BME280;36359;41.556;-8.418;2023-08-08T04:29:03;99565.03;;;26.44;36.61
50430;BME280;36359;41.556;-8.418;2023-08-08T04:31:29;99566.94;;;26.39;36.59
50430;BME280;36359;41.556;-8.418;2023-08-08T04:33:54;99570.06;;;26.53;36.84
50430;BME280;36359;41.556;-8.418;2023-08-08T04:36:26;99564.13;;;26.28;37.24
50430;BME280;36359;41.556;-8.418;2023-08-08T04:38:52;99559.97;;;26.31;37.11
50430;BME280;36359;41.556;-8.418;2023-08-08T04:41:18;99572.19;;;26.30;36.91
50430;BME280;36359;41.556;-8.418;2023-08-08T04:43:43;99573.00;;;26.25;37.10
50430;BME280;36359;41.556;-8.418;2023-08-08T04:46:09;99573.28;;;26.24;37.33
50430;BME280;36359;41.556;-8.418;2023-08-08T04:48:36;99568.53;;;26.19;37.56
50430;BME280;36359;41.556;-8.418;2023-08-08T04:51:05;99573.00;;;26.25;37.71
50430;BME280;36359;41.556;-8.418;2023-08-08T04:53:30;99571.34;;;26.24;37.29
50430;BME280;36359;41.556;-8.418;2023-08-08T04:55:56;99571.59;;;26.23;37.44
50430;BME280;36359;41.556;-8.418;2023-08-08T04:58:22;99575.22;;;26.23;36.86
50430;BME280;36359;41.556;-8.418;2023-08-08T05:00:48;99579.44;;;26.36;36.43
50430;BME280;36359;41.556;-8.418;2023-08-08T05:03:13;99574.44;;;26.33;37.50
50430;BME280;36359;41.556;-8.418;2023-08-08T05:05:39;99576.97;;;26.45;38.05
50430;BME280;36359;41.556;-8.418;2023-08-08T05:08:05;99581.09;;;26.32;37.67
50430;BME280;36359;41.556;-8.418;2023-08-08T05:10:30;99574.19;;;26.40;39.50
50430;BME280;36359;41.556;-8.418;2023-08-08T05:12:57;99577.31;;;26.54;39.72
50430;BME280;36359;41.556;-8.418;2023-08-08T05:15:23;99577.44;;;26.26;40.97
50430;BME280;36359;41.556;-8.418;2023-08-08T05:17:48;99584.59;;;26.70;40.40
50430;BME280;36359;41.556;-8.418;2023-08-08T05:20:14;99585.78;;;26.94;40.44
50430;BME280;36359;41.556;-8.418;2023-08-08T05:22:40;99588.53;;;26.89;40.47
50430;BME280;36359;41.556;-8.418;2023-08-08T05:25:06;99589.44;;;27.15;39.43
50430;BME280;36359;41.556;-8.418;2023-08-08T05:27:32;99591.31;;;27.00;40.72
50430;BME280;36359;41.556;-8.418;2023-08-08T05:29:58;99590.16;;;26.70;41.63
50430;BME280;36359;41.556;-8.418;2023-08-08T05:32:23;99596.47;;;26.50;42.37
50430;BME280;36359;41.556;-8.418;2023-08-08T05:34:51;99586.75;;;26.53;43.57
50430;BME280;36359;41.556;-8.418;2023-08-08T05:37:16;99584.88;;;26.73;42.32
50430;BME280;36359;41.556;-8.418;2023-08-08T05:39:42;99594.66;;;26.86;40.90
50430;BME280;36359;41.556;-8.418;2023-08-08T05:42:08;99588.16;;;26.55;41.81
50430;BME280;36359;41.556;-8.418;2023-08-08T05:44:33;99591.88;;;25.76;43.71
50430;BME280;36359;41.556;-8.418;2023-08-08T05:46:59;99590.34;;;26.48;42.32
50430;BME280;36359;41.556;-8.418;2023-08-08T05:49:25;99591.84;;;26.71;42.19
50430;BME280;36359;41.556;-8.418;2023-08-08T05:51:50;99594.28;;;26.57;42.08
50430;BME280;36359;41.556;-8.418;2023-08-08T05:54:16;99594.03;;;26.64;42.11
50430;BME280;36359;41.556;-8.418;2023-08-08T05:56:42;99589.59;;;26.73;42.32
50430;BME280;36359;41.556;-8.418;2023-08-08T05:59:07;99599.56;;;26.54;42.38
50430;BME280;36359;41.556;-8.418;2023-08-08T06:01:33;99601.19;;;26.44;42.61
50430;BME280;36359;41.556;-8.418;2023-08-08T06:04:00;99604.38;;;26.79;42.19
50430;BME280;36359;41.556;-8.418;2023-08-08T06:06:26;99603.81;;;26.82;41.99
50430;BME280;36359;41.556;-8.418;2023-08-08T06:08:52;99605.69;;;26.56;42.58
50430;BME280;36359;41.556;-8.418;2023-08-08T06:11:18;99609.81;;;26.48;43.13
50430;BME280;36359;41.556;-8.418;2023-08-08T06:13:44;99608.25;;;26.72;42.71
50430;BME280;36359;41.556;-8.418;2023-08-08T06:16:10;99607.16;;;26.84;42.69
50430;BME280;36359;41.556;-8.418;2023-08-08T06:18:36;99609.59;;;26.65;43.00
50430;BME280;36359;41.556;-8.418;2023-08-08T06:21:02;99616.13;;;26.28;44.74
50430;BME280;36359;41.556;-8.418;2023-08-08T06:23:28;99623.50;;;26.07;45.40
50430;BME280;36359;41.556;-8.418;2023-08-08T06:25:54;99621.31;;;26.14;44.08
50430;BME280;36359;41.556;-8.418;2023-08-08T06:28:19;99629.97;;;26.18;44.94
50430;BME280;36359;41.556;-8.418;2023-08-08T06:30:45;99632.00;;;26.33;44.53
50430;BME280;36359;41.556;-8.418;2023-08-08T06:33:11;99636.34;;;26.66;43.06
50430;BME280;36359;41.556;-8.418;2023-08-08T06:35:37;99642.22;;;26.22;43.19
50430;BME280;36359;41.556;-8.418;2023-08-08T06:38:03;99641.44;;;26.32;43.89
50430;BME280;36359;41.556;-8.418;2023-08-08T06:40:28;99641.47;;;26.37;43.76
50430;BME280;36359;41.556;-8.418;2023-08-08T06:42:54;99651.47;;;26.33;43.67
50430;BME280;36359;41.556;-8.418;2023-08-08T06:45:21;99649.81;;;26.37;43.25
50430;BME280;36359;41.556;-8.418;2023-08-08T06:47:46;99648.47;;;26.44;43.54
50430;BME280;36359;41.556;-8.418;2023-08-08T06:50:12;99655.56;;;26.78;43.49
50430;BME280;36359;41.556;-8.418;2023-08-08T06:52:38;99652.50;;;26.74;43.46
50430;BME280;36359;41.556;-8.418;2023-08-08T06:55:04;99653.13;;;27.02;42.61
50430;BME280;36359;41.556;-8.418;2023-08-08T06:57:33;99657.59;;;26.98;42.76
50430;BME280;36359;41.556;-8.418;2023-08-08T07:00:00;99654.16;;;26.70;44.03
50430;BME280;36359;41.556;-8.418;2023-08-08T07:02:25;99655.84;;;26.76;43.76
50430;BME280;36359;41.556;-8.418;2023-08-08T07:04:51;99658.34;;;26.72;43.66
50430;BME280;36359;41.556;-8.418;2023-08-08T07:07:17;99663.00;;;26.62;43.14
50430;BME280;36359;41.556;-8.418;2023-08-08T07:09:42;99667.47;;;26.58;43.28
50430;BME280;36359;41.556;-8.418;2023-08-08T07:12:09;99673.03;;;26.58;43.00
50430;BME280;36359;41.556;-8.418;2023-08-08T07:14:34;99675.59;;;26.75;42.43
50430;BME280;36359;41.556;-8.418;2023-08-08T07:17:00;99676.50;;;26.95;43.27
50430;BME280;36359;41.556;-8.418;2023-08-08T07:19:28;99686.06;;;27.15;41.88
50430;BME280;36359;41.556;-8.418;2023-08-08T07:21:54;99680.53;;;27.30;42.32
50430;BME280;36359;41.556;-8.418;2023-08-08T07:24:19;99685.72;;;27.11;41.78
50430;BME280;36359;41.556;-8.418;2023-08-08T07:26:46;99689.91;;;27.04;42.61
50430;BME280;36359;41.556;-8.418;2023-08-08T07:29:11;99689.72;;;27.36;42.57
50430;BME280;36359;41.556;-8.418;2023-08-08T07:31:37;99690.56;;;27.36;42.37
50430;BME280;36359;41.556;-8.418;2023-08-08T07:34:03;99698.91;;;27.52;41.83
50430;BME280;36359;41.556;-8.418;2023-08-08T07:36:29;99699.47;;;27.64;42.08
50430;BME280;36359;41.556;-8.418;2023-08-08T07:38:54;99694.78;;;27.80;41.49
50430;BME280;36359;41.556;-8.418;2023-08-08T07:41:26;99703.97;;;27.91;41.35
50430;BME280;36359;41.556;-8.418;2023-08-08T07:43:52;99703.16;;;28.00;41.05
50430;BME280;36359;41.556;-8.418;2023-08-08T07:46:18;99710.94;;;28.08;40.95
50430;BME280;36359;41.556;-8.418;2023-08-08T07:48:44;99710.94;;;28.14;41.07
50430;BME280;36359;41.556;-8.418;2023-08-08T07:51:10;99716.25;;;28.15;40.76
50430;BME280;36359;41.556;-8.418;2023-08-08T07:53:35;99719.59;;;28.12;42.19
50430;BME280;36359;41.556;-8.418;2023-08-08T07:56:01;99715.09;;;28.16;42.30
50430;BME280;36359;41.556;-8.418;2023-08-08T07:58:27;99722.38;;;28.12;41.66
50430;BME280;36359;41.556;-8.418;2023-08-08T08:00:53;99720.16;;;28.04;42.98
50430;BME280;36359;41.556;-8.418;2023-08-08T08:03:22;99722.63;;;28.05;41.79
50430;BME280;36359;41.556;-8.418;2023-08-08T08:05:47;99726.25;;;28.16;41.57
50430;BME280;36359;41.556;-8.418;2023-08-08T08:08:13;99729.06;;;28.21;41.69
50430;BME280;36359;41.556;-8.418;2023-08-08T08:10:39;99730.16;;;28.30;41.16
50430;BME280;36359;41.556;-8.418;2023-08-08T08:13:05;99728.47;;;28.40;40.64
50430;BME280;36359;41.556;-8.418;2023-08-08T08:15:30;99732.06;;;28.40;40.80
50430;BME280;36359;41.556;-8.418;2023-08-08T08:17:56;99732.94;;;28.51;40.48
50430;BME280;36359;41.556;-8.418;2023-08-08T08:20:22;99733.47;;;28.53;40.47
50430;BME280;36359;41.556;-8.418;2023-08-08T08:22:48;99735.41;;;28.63;40.42
50430;BME280;36359;41.556;-8.418;2023-08-08T08:25:14;99742.34;;;28.75;40.27
50430;BME280;36359;41.556;-8.418;2023-08-08T08:27:40;99737.88;;;28.80;40.01
50430;BME280;36359;41.556;-8.418;2023-08-08T08:30:07;99737.00;;;28.79;40.09
50430;BME280;36359;41.556;-8.418;2023-08-08T08:32:36;99734.44;;;28.98;38.89
50430;BME280;36359;41.556;-8.418;2023-08-08T08:35:03;99737.84;;;28.85;40.10
50430;BME280;36359;41.556;-8.418;2023-08-08T08:37:32;99739.47;;;28.91;39.93
50430;BME280;36359;41.556;-8.418;2023-08-08T08:39:58;99748.66;;;28.96;38.76
50430;BME280;36359;41.556;-8.418;2023-08-08T08:42:24;99745.31;;;28.99;39.46
50430;BME280;36359;41.556;-8.418;2023-08-08T08:44:52;99745.84;;;29.12;39.15
50430;BME280;36359;41.556;-8.418;2023-08-08T08:47:20;99749.19;;;29.14;39.29
50430;BME280;36359;41.556;-8.418;2023-08-08T08:49:46;99752.22;;;29.17;38.74
50430;BME280;36359;41.556;-8.418;2023-08-08T08:52:11;99752.78;;;29.19;39.44
50430;BME280;36359;41.556;-8.418;2023-08-08T08:54:38;99756.97;;;29.22;39.15
50430;BME280;36359;41.556;-8.418;2023-08-08T08:57:04;99755.75;;;29.38;38.75
50430;BME280;36359;41.556;-8.418;2023-08-08T08:59:30;99759.34;;;29.44;38.81
50430;BME280;36359;41.556;-8.418;2023-08-08T09:01:56;99761.88;;;29.46;38.80
50430;BME280;36359;41.556;-8.418;2023-08-08T09:04:23;99758.72;;;29.57;38.36
50430;BME280;36359;41.556;-8.418;2023-08-08T09:06:50;99756.47;;;29.59;38.51
50430;BME280;36359;41.556;-8.418;2023-08-08T09:09:17;99760.97;;;29.55;38.69
50430;BME280;36359;41.556;-8.418;2023-08-08T09:11:47;99764.88;;;29.59;38.46
50430;BME280;36359;41.556;-8.418;2023-08-08T09:14:21;99767.59;;;29.70;38.18
50430;BME280;36359;41.556;-8.418;2023-08-08T09:16:48;99768.16;;;29.72;38.49
50430;BME280;36359;41.556;-8.418;2023-08-08T09:19:15;99766.06;;;29.87;38.77
50430;BME280;36359;41.556;-8.418;2023-08-08T09:21:43;99774.06;;;30.04;38.07
50430;BME280;36359;41.556;-8.418;2023-08-08T09:24:09;99777.00;;;30.23;38.24
50430;BME280;36359;41.556;-8.418;2023-08-08T09:26:35;99776.66;;;30.30;38.77
50430;BME280;36359;41.556;-8.418;2023-08-08T09:29:02;99779.34;;;30.40;38.13
50430;BME280;36359;41.556;-8.418;2023-08-08T09:31:28;99793.97;;;30.32;37.47
50430;BME280;36359;41.556;-8.418;2023-08-08T09:34:02;99781.75;;;30.23;38.57
50430;BME280;36359;41.556;-8.418;2023-08-08T09:36:28;99779.69;;;30.63;38.31
50430;BME280;36359;41.556;-8.418;2023-08-08T09:38:54;99783.56;;;30.67;38.74
50430;BME280;36359;41.556;-8.418;2023-08-08T09:41:21;99785.34;;;30.58;39.80
50430;BME280;36359;41.556;-8.418;2023-08-08T09:43:48;99782.50;;;30.63;38.81
50430;BME280;36359;41.556;-8.418;2023-08-08T09:46:14;99788.09;;;30.63;39.00
50430;BME280;36359;41.556;-8.418;2023-08-08T09:48:41;99795.91;;;30.95;38.73
50430;BME280;36359;41.556;-8.418;2023-08-08T09:51:08;99796.88;;;31.28;39.49
50430;BME280;36359;41.556;-8.418;2023-08-08T09:53:34;99796.91;;;31.04;37.34
50430;BME280;36359;41.556;-8.418;2023-08-08T09:56:03;99798.53;;;31.29;38.02
50430;BME280;36359;41.556;-8.418;2023-08-08T09:58:30;99799.22;;;31.21;37.23
50430;BME280;36359;41.556;-8.418;2023-08-08T10:00:55;99794.19;;;31.61;37.53
50430;BME280;36359;41.556;-8.418;2023-08-08T10:03:22;99797.69;;;31.53;37.60
50430;BME280;36359;41.556;-8.418;2023-08-08T10:05:48;99799.19;;;31.64;38.43
50430;BME280;36359;41.556;-8.418;2023-08-08T10:08:14;99806.03;;;31.58;38.02
50430;BME280;36359;41.556;-8.418;2023-08-08T10:10:43;99794.13;;;31.66;36.98
50430;BME280;36359;41.556;-8.418;2023-08-08T10:13:10;99789.34;;;31.85;38.16
50430;BME280;36359;41.556;-8.418;2023-08-08T10:15:39;99798.78;;;31.95;38.17
50430;BME280;36359;41.556;-8.418;2023-08-08T10:18:06;99797.63;;;31.96;36.97
50430;BME280;36359;41.556;-8.418;2023-08-08T10:20:32;99795.56;;;31.82;38.85
50430;BME280;36359;41.556;-8.418;2023-08-08T10:22:59;99791.16;;;31.76;37.96
50430;BME280;36359;41.556;-8.418;2023-08-08T10:25:30;99792.38;;;32.08;37.56
50430;BME280;36359;41.556;-8.418;2023-08-08T10:28:04;99790.88;;;31.97;36.92
50430;BME280;36359;41.556;-8.418;2023-08-08T10:30:44;99791.84;;;32.06;36.66
50430;BME280;36359;41.556;-8.418;2023-08-08T10:36:04;99792.91;;;32.43;35.70
50430;BME280;36359;41.556;-8.418;2023-08-08T10:38:48;99789.72;;;32.17;33.49
50430;BME280;36359;41.556;-8.418;2023-08-08T10:41:17;99787.75;;;32.50;33.51
50430;BME280;36359;41.556;-8.418;2023-08-08T10:46:26;99789.88;;;32.39;35.15
50430;BME280;36359;41.556;-8.418;2023-08-08T10:48:56;99795.91;;;32.65;35.94
50430;BME280;36359;41.556;-8.418;2023-08-08T10:51:46;99788.56;;;33.24;36.32
50430;BME280;36359;41.556;-8.418;2023-08-08T10:54:14;99786.38;;;33.08;34.36
50430;BME280;36359;41.556;-8.418;2023-08-08T10:56:41;99783.56;;;33.08;33.69
50430;BME280;36359;41.556;-8.418;2023-08-08T10:59:21;99785.31;;;32.90;34.05
50430;BME280;36359;41.556;-8.418;2023-08-08T11:01:49;99785.13;;;33.14;34.53
50430;BME280;36359;41.556;-8.418;2023-08-08T11:04:21;99774.41;;;33.02;34.12
50430;BME280;36359;41.556;-8.418;2023-08-08T11:06:47;99769.28;;;33.18;33.79
50430;BME280;36359;41.556;-8.418;2023-08-08T11:09:16;99765.34;;;33.19;34.35
50430;BME280;36359;41.556;-8.418;2023-08-08T11:11:44;99780.72;;;32.94;34.55
50430;BME280;36359;41.556;-8.418;2023-08-08T11:14:15;99770.97;;;33.05;34.48
50430;BME280;36359;41.556;-8.418;2023-08-08T11:16:42;99772.34;;;33.44;33.46
50430;BME280;36359;41.556;-8.418;2023-08-08T11:19:09;99780.63;;;33.77;33.41
50430;BME280;36359;41.556;-8.418;2023-08-08T11:21:36;99768.47;;;33.67;33.73
50430;BME280;36359;41.556;-8.418;2023-08-08T11:24:04;99773.22;;;33.44;34.57
50430;BME280;36359;41.556;-8.418;2023-08-08T11:26:30;99773.63;;;33.52;34.58
50430;BME280;36359;41.556;-8.418;2023-08-08T11:29:02;99765.72;;;33.76;34.41
50430;BME280;36359;41.556;-8.418;2023-08-08T11:31:29;99773.88;;;34.00;34.42
50430;BME280;36359;41.556;-8.418;2023-08-08T11:33:55;99774.03;;;34.18;33.67
50430;BME280;36359;41.556;-8.418;2023-08-08T11:36:22;99759.69;;;33.33;34.92
50430;BME280;36359;41.556;-8.418;2023-08-08T11:38:48;99767.25;;;33.46;35.70
50430;BME280;36359;41.556;-8.418;2023-08-08T11:41:18;99766.69;;;33.21;35.48
50430;BME280;36359;41.556;-8.418;2023-08-08T11:43:45;99763.66;;;33.18;35.96
50430;BME280;36359;41.556;-8.418;2023-08-08T11:46:12;99762.00;;;33.31;35.99
50430;BME280;36359;41.556;-8.418;2023-08-08T11:48:38;99771.16;;;33.36;35.58
50430;BME280;36359;41.556;-8.418;2023-08-08T11:51:05;99774.88;;;33.32;35.49
50430;BME280;36359;41.556;-8.418;2023-08-08T11:53:31;99768.53;;;33.40;35.62
50430;BME280;36359;41.556;-8.418;2023-08-08T11:55:57;99775.81;;;33.41;34.98
50430;BME280;36359;41.556;-8.418;2023-08-08T11:58:24;99772.91;;;33.82;34.45
50430;BME280;36359;41.556;-8.418;2023-08-08T12:00:51;99771.81;;;33.69;34.22
50430;BME280;36359;41.556;-8.418;2023-08-08T12:03:18;99761.28;;;33.75;34.66
50430;BME280;36359;41.556;-8.418;2023-08-08T12:05:47;99772.06;;;33.82;34.34
50430;BME280;36359;41.556;-8.418;2023-08-08T12:08:22;99768.13;;;33.83;34.18
50430;BME280;36359;41.556;-8.418;2023-08-08T12:10:52;99769.81;;;34.06;33.65
50430;BME280;36359;41.556;-8.418;2023-08-08T12:13:21;99763.97;;;33.80;33.51
50430;BME280;36359;41.556;-8.418;2023-08-08T12:15:47;99761.22;;;34.34;32.59
50430;BME280;36359;41.556;-8.418;2023-08-08T12:18:16;99765.03;;;34.07;32.49
50430;BME280;36359;41.556;-8.418;2023-08-08T12:20:45;99763.66;;;34.27;32.66
50430;BME280;36359;41.556;-8.418;2023-08-08T12:23:12;99752.88;;;33.61;33.94
50430;BME280;36359;41.556;-8.418;2023-08-08T12:25:38;99757.13;;;34.18;32.56
50430;BME280;36359;41.556;-8.418;2023-08-08T12:28:04;99754.97;;;33.92;32.99
50430;BME280;36359;41.556;-8.418;2023-08-08T12:30:31;99753.50;;;34.17;32.59
50430;BME280;36359;41.556;-8.418;2023-08-08T12:32:57;99744.97;;;34.31;32.92
50430;BME280;36359;41.556;-8.418;2023-08-08T12:35:22;99749.72;;;34.22;32.56
50430;BME280;36359;41.556;-8.418;2023-08-08T12:37:52;99749.50;;;33.96;32.91
50430;BME280;36359;41.556;-8.418;2023-08-08T12:40:18;99746.31;;;34.33;32.43
50430;BME280;36359;41.556;-8.418;2023-08-08T12:42:44;99748.84;;;34.12;32.66
50430;BME280;36359;41.556;-8.418;2023-08-08T12:45:09;99756.59;;;34.38;32.51
50430;BME280;36359;41.556;-8.418;2023-08-08T12:47:36;99746.50;;;34.37;32.80
50430;BME280;36359;41.556;-8.418;2023-08-08T12:50:06;99747.19;;;34.65;32.38
50430;BME280;36359;41.556;-8.418;2023-08-08T12:52:32;99748.66;;;34.40;32.22
50430;BME280;36359;41.556;-8.418;2023-08-08T12:54:57;99735.78;;;34.48;32.72
50430;BME280;36359;41.556;-8.418;2023-08-08T12:57:23;99743.28;;;34.92;32.50
50430;BME280;36359;41.556;-8.418;2023-08-08T12:59:50;99743.91;;;34.49;33.37